sensor_id;sensor_type;location;lat;lon;timestamp;pressure;altitude;pressure_sealevel;temperature;humidity
66681;BME280;53575;51.366;12.350;2023-05-03T00:00:53;101421.47;;;7.13;74.41
66681;BME280;53575;51.366;12.350;2023-05-03T00:03:19;101424.31;;;7.22;74.52
66681;BME280;53575;51.366;12.350;2023-05-03T00:05:48;101419.06;;;7.21;74.56
66681;BME280;53575;51.366;12.350;2023-05-03T00:08:14;101411.31;;;7.22;73.83
66681;BME280;53575;51.366;12.350;2023-05-03T00:10:40;101418.84;;;7.12;74.85
66681;BME280;53575;51.366;12.350;2023-05-03T00:13:05;101421.97;;;6.98;75.17
66681;BME280;53575;51.366;12.350;2023-05-03T00:15:31;101424.69;;;7.03;74.81
66681;BME280;53575;51.366;12.350;2023-05-03T00:17:57;101422.91;;;7.02;74.79
66681;BME280;53575;51.366;12.350;2023-05-03T00:20:22;101420.06;;;6.93;74.52
66681;BME280;53575;51.366;12.350;2023-05-03T00:22:49;101419.84;;;6.83;75.18
66681;BME280;53575;51.366;12.350;2023-05-03T00:25:14;101421.75;;;6.91;74.97
66681;BME280;53575;51.366;12.350;2023-05-03T00:27:40;101427.03;;;6.94;75.77
66681;BME280;53575;51.366;12.350;2023-05-03T00:30:06;101425.06;;;6.85;75.15
66681;BME280;53575;51.366;12.350;2023-05-03T00:32:32;101417.72;;;6.70;76.03
66681;BME280;53575;51.366;12.350;2023-05-03T00:34:57;101423.25;;;6.82;77.26
66681;BME280;53575;51.366;12.350;2023-05-03T00:37:23;101412.50;;;6.69;76.71
66681;BME280;53575;51.366;12.350;2023-05-03T00:39:49;101414.22;;;6.68;78.00
66681;BME280;53575;51.366;12.350;2023-05-03T00:42:14;101410.66;;;6.65;77.76
66681;BME280;53575;51.366;12.350;2023-05-03T00:44:40;101407.00;;;6.58;78.58
66681;BME280;53575;51.366;12.350;2023-05-03T00:47:05;101414.06;;;6.32;79.22
66681;BME280;53575;51.366;12.350;2023-05-03T00:49:32;101413.50;;;6.42;80.55
66681;BME280;53575;51.366;12.350;2023-05-03T00:51:57;101418.59;;;6.39;80.16
66681;BME280;53575;51.366;12.350;2023-05-03T00:54:28;101417.44;;;6.29;80.68
66681;BME280;53575;51.366;12.350;2023-05-03T00:56:57;101417.38;;;6.26;81.31
66681;BME280;53575;51.366;12.350;2023-05-03T00:59:23;101416.97;;;6.43;82.71
66681;BME280;53575;51.366;12.350;2023-05-03T01:01:50;101417.72;;;6.39;80.06
66681;BME280;53575;51.366;12.350;2023-05-03T01:04:16;101414.91;;;6.31;80.88
66681;BME280;53575;51.366;12.350;2023-05-03T01:09:43;101415.75;;;6.30;83.56
66681;BME280;53575;51.366;12.350;2023-05-03T01:17:24;101415.00;;;6.05;84.03
66681;BME280;53575;51.366;12.350;2023-05-03T01:19:55;101416.41;;;5.94;83.84
66681;BME280;53575;51.366;12.350;2023-05-03T01:25:10;101414.38;;;5.85;86.75
66681;BME280;53575;51.366;12.350;2023-05-03T01:27:37;101415.78;;;5.74;86.97
66681;BME280;53575;51.366;12.350;2023-05-03T01:30:06;101419.09;;;5.97;86.22
66681;BME280;53575;51.366;12.350;2023-05-03T01:32:55;101423.56;;;5.74;87.37
66681;BME280;53575;51.366;12.350;2023-05-03T01:37:56;101430.34;;;5.71;88.51
66681;BME280;53575;51.366;12.350;2023-05-03T01:40:22;101419.34;;;5.51;87.91
66681;BME280;53575;51.366;12.350;2023-05-03T01:42:49;101426.28;;;5.52;89.17
66681;BME280;53575;51.366;12.350;2023-05-03T01:45:15;101426.56;;;5.34;89.35
66681;BME280;53575;51.366;12.350;2023-05-03T01:47:41;101423.03;;;5.30;89.71
66681;BME280;53575;51.366;12.350;2023-05-03T01:50:07;101426.28;;;5.52;88.86
66681;BME280;53575;51.366;12.350;2023-05-03T01:52:33;101424.56;;;5.52;88.49
66681;BME280;53575;51.366;12.350;2023-05-03T01:54:58;101429.38;;;5.40;89.13
66681;BME280;53575;51.366;12.350;2023-05-03T01:57:24;101425.13;;;5.42;90.29
66681;BME280;53575;51.366;12.350;2023-05-03T01:59:50;101428.78;;;5.49;90.36
66681;BME280;53575;51.366;12.350;2023-05-03T02:02:15;101429.88;;;5.55;91.26
66681;BME280;53575;51.366;12.350;2023-05-03T02:04:40;101430.16;;;5.65;89.00
66681;BME280;53575;51.366;12.350;2023-05-03T02:07:06;101433.03;;;5.74;90.19
66681;BME280;53575;51.366;12.350;2023-05-03T02:09:31;101434.41;;;5.62;90.61
66681;BME280;53575;51.366;12.350;2023-05-03T02:11:56;101431.69;;;5.58;88.74
66681;BME280;53575;51.366;12.350;2023-05-03T02:14:22;101432.56;;;5.58;89.42
66681;BME280;53575;51.366;12.350;2023-05-03T02:16:47;101435.28;;;5.63;88.52
66681;BME280;53575;51.366;12.350;2023-05-03T02:19:13;101435.03;;;5.55;88.26
66681;BME280;53575;51.366;12.350;2023-05-03T02:21:38;101438.72;;;5.62;87.44
66681;BME280;53575;51.366;12.350;2023-05-03T02:24:04;101440.22;;;5.55;88.10
66681;BME280;53575;51.366;12.350;2023-05-03T02:26:29;101439.75;;;5.67;87.72
66681;BME280;53575;51.366;12.350;2023-05-03T02:28:55;101437.13;;;5.66;87.43
66681;BME280;53575;51.366;12.350;2023-05-03T02:31:21;101441.31;;;5.62;87.64
66681;BME280;53575;51.366;12.350;2023-05-03T02:33:46;101442.06;;;5.58;87.92
66681;BME280;53575;51.366;12.350;2023-05-03T02:36:12;101444.69;;;5.59;87.27
66681;BME280;53575;51.366;12.350;2023-05-03T02:38:37;101446.78;;;5.71;87.95
66681;BME280;53575;51.366;12.350;2023-05-03T02:41:02;101451.22;;;5.75;86.18
66681;BME280;53575;51.366;12.350;2023-05-03T02:43:28;101457.16;;;5.71;86.22
66681;BME280;53575;51.366;12.350;2023-05-03T02:45:53;101457.03;;;5.67;86.41
66681;BME280;53575;51.366;12.350;2023-05-03T02:48:18;101459.59;;;5.40;88.44
66681;BME280;53575;51.366;12.350;2023-05-03T02:50:44;101450.13;;;5.67;90.65
66681;BME280;53575;51.366;12.350;2023-05-03T02:53:09;101454.63;;;5.73;90.49
66681;BME280;53575;51.366;12.350;2023-05-03T02:55:36;101452.81;;;5.70;88.41
66681;BME280;53575;51.366;12.350;2023-05-03T02:58:01;101454.16;;;5.57;89.21
66681;BME280;53575;51.366;12.350;2023-05-03T03:00:27;101453.16;;;5.54;87.92
66681;BME280;53575;51.366;12.350;2023-05-03T03:02:52;101454.66;;;5.47;88.37
66681;BME280;53575;51.366;12.350;2023-05-03T03:05:18;101461.00;;;5.57;88.97
66681;BME280;53575;51.366;12.350;2023-05-03T03:07:43;101453.34;;;5.60;88.67
66681;BME280;53575;51.366;12.350;2023-05-03T03:10:09;101458.63;;;5.63;88.99
66681;BME280;53575;51.366;12.350;2023-05-03T03:12:35;101460.31;;;5.61;88.71
66681;BME280;53575;51.366;12.350;2023-05-03T03:15:00;101464.75;;;5.65;89.08
66681;BME280;53575;51.366;12.350;2023-05-03T03:17:25;101456.75;;;5.57;89.20
66681;BME280;53575;51.366;12.350;2023-05-03T03:19:51;101451.09;;;5.44;89.86
66681;BME280;53575;51.366;12.350;2023-05-03T03:22:16;101461.72;;;5.51;90.56
66681;BME280;53575;51.366;12.350;2023-05-03T03:24:42;101462.09;;;5.63;90.30
66681;BME280;53575;51.366;12.350;2023-05-03T03:27:07;101465.13;;;5.50;90.50
66681;BME280;53575;51.366;12.350;2023-05-03T03:29:34;101464.19;;;5.48;90.21
66681;BME280;53575;51.366;12.350;2023-05-03T03:31:59;101465.72;;;5.16;91.17
66681;BME280;53575;51.366;12.350;2023-05-03T03:34:25;101465.28;;;5.29;90.56
66681;BME280;53575;51.366;12.350;2023-05-03T03:36:50;101472.03;;;5.24;90.56
66681;BME280;53575;51.366;12.350;2023-05-03T03:39:16;101465.09;;;5.23;90.80
66681;BME280;53575;51.366;12.350;2023-05-03T03:41:42;101475.00;;;5.35;91.49
66681;BME280;53575;51.366;12.350;2023-05-03T03:44:08;101476.28;;;5.22;91.03
66681;BME280;53575;51.366;12.350;2023-05-03T03:46:33;101477.00;;;5.44;88.92
66681;BME280;53575;51.366;12.350;2023-05-03T03:48:59;101481.47;;;5.48;87.66
66681;BME280;53575;51.366;12.350;2023-05-03T03:51:24;101483.44;;;5.55;86.99
66681;BME280;53575;51.366;12.350;2023-05-03T03:53:51;101486.06;;;5.56;86.25
66681;BME280;53575;51.366;12.350;2023-05-03T03:56:16;101482.44;;;5.51;87.28
66681;BME280;53575;51.366;12.350;2023-05-03T03:58:42;101484.16;;;5.51;87.75
66681;BME280;53575;51.366;12.350;2023-05-03T04:01:07;101485.63;;;5.43;85.85
66681;BME280;53575;51.366;12.350;2023-05-03T04:03:33;101485.56;;;5.41;85.77
66681;BME280;53575;51.366;12.350;2023-05-03T04:05:58;101490.91;;;5.46;86.68
66681;BME280;53575;51.366;12.350;2023-05-03T04:08:24;101497.78;;;5.71;83.42
66681;BME280;53575;51.366;12.350;2023-05-03T04:10:49;101497.56;;;5.65;84.43
66681;BME280;53575;51.366;12.350;2023-05-03T04:13:15;101504.06;;;5.52;84.29
66681;BME280;53575;51.366;12.350;2023-05-03T04:15:40;101503.09;;;5.48;83.79
66681;BME280;53575;51.366;12.350;2023-05-03T04:18:06;101507.53;;;5.52;83.10
66681;BME280;53575;51.366;12.350;2023-05-03T04:20:31;101517.13;;;5.55;82.85
66681;BME280;53575;51.366;12.350;2023-05-03T04:23:00;101522.28;;;5.53;83.75
66681;BME280;53575;51.366;12.350;2023-05-03T04:25:26;101522.22;;;5.52;83.44
66681;BME280;53575;51.366;12.350;2023-05-03T04:27:52;101525.44;;;5.45;82.83
66681;BME280;53575;51.366;12.350;2023-05-03T04:30:17;101529.16;;;5.53;83.53
66681;BME280;53575;51.366;12.350;2023-05-03T04:32:44;101524.66;;;5.47;83.67
66681;BME280;53575;51.366;12.350;2023-05-03T04:35:09;101535.19;;;5.52;83.64
66681;BME280;53575;51.366;12.350;2023-05-03T04:37:37;101533.31;;;5.73;83.34
66681;BME280;53575;51.366;12.350;2023-05-03T04:40:03;101533.63;;;5.57;83.76
66681;BME280;53575;51.366;12.350;2023-05-03T04:42:32;101539.97;;;5.65;84.25
66681;BME280;53575;51.366;12.350;2023-05-03T04:44:58;101538.66;;;5.52;84.24
66681;BME280;53575;51.366;12.350;2023-05-03T04:47:23;101546.13;;;5.43;84.79
66681;BME280;53575;51.366;12.350;2023-05-03T04:49:50;101547.56;;;5.60;84.71
66681;BME280;53575;51.366;12.350;2023-05-03T04:52:15;101543.03;;;5.53;84.22
66681;BME280;53575;51.366;12.350;2023-05-03T04:54:41;101550.88;;;5.56;84.27
66681;BME280;53575;51.366;12.350;2023-05-03T04:57:06;101547.94;;;5.46;84.60
66681;BME280;53575;51.366;12.350;2023-05-03T04:59:34;101551.03;;;5.35;84.98
66681;BME280;53575;51.366;12.350;2023-05-03T05:02:00;101555.84;;;5.25;85.98
66681;BME280;53575;51.366;12.350;2023-05-03T05:04:26;101553.91;;;5.43;85.58
66681;BME280;53575;51.366;12.350;2023-05-03T05:06:52;101557.13;;;5.61;84.72
66681;BME280;53575;51.366;12.350;2023-05-03T05:09:22;101554.16;;;5.51;85.09
66681;BME280;53575;51.366;12.350;2023-05-03T05:11:48;101562.25;;;5.60;85.65
66681;BME280;53575;51.366;12.350;2023-05-03T05:14:13;101556.66;;;5.73;84.70
66681;BME280;53575;51.366;12.350;2023-05-03T05:16:39;101559.97;;;5.69;84.43
66681;BME280;53575;51.366;12.350;2023-05-03T05:19:04;101554.09;;;5.49;84.88
66681;BME280;53575;51.366;12.350;2023-05-03T05:21:30;101550.59;;;5.47;84.99
66681;BME280;53575;51.366;12.350;2023-05-03T05:23:55;101555.72;;;5.46;85.72
66681;BME280;53575;51.366;12.350;2023-05-03T05:26:20;101564.19;;;5.42;85.40
66681;BME280;53575;51.366;12.350;2023-05-03T05:28:46;101562.06;;;5.54;84.89
66681;BME280;53575;51.366;12.350;2023-05-03T05:31:11;101560.16;;;5.75;84.03
66681;BME280;53575;51.366;12.350;2023-05-03T05:33:37;101561.47;;;5.62;83.42
66681;BME280;53575;51.366;12.350;2023-05-03T05:36:03;101562.72;;;5.74;84.01
66681;BME280;53575;51.366;12.350;2023-05-03T05:38:29;101564.63;;;5.79;83.55
66681;BME280;53575;51.366;12.350;2023-05-03T05:40:54;101561.25;;;5.82;83.18
66681;BME280;53575;51.366;12.350;2023-05-03T05:43:20;101568.91;;;6.03;82.66
66681;BME280;53575;51.366;12.350;2023-05-03T05:45:45;101571.84;;;6.14;81.45
66681;BME280;53575;51.366;12.350;2023-05-03T05:48:11;101578.00;;;6.17;80.38
66681;BME280;53575;51.366;12.350;2023-05-03T05:50:36;101572.00;;;6.18;81.11
66681;BME280;53575;51.366;12.350;2023-05-03T05:53:01;101577.47;;;6.27;80.69
66681;BME280;53575;51.366;12.350;2023-05-03T05:55:27;101583.13;;;6.41;79.31
66681;BME280;53575;51.366;12.350;2023-05-03T05:57:52;101576.59;;;6.27;79.16
66681;BME280;53575;51.366;12.350;2023-05-03T06:00:18;101577.91;;;6.41;78.25
66681;BME280;53575;51.366;12.350;2023-05-03T06:02:44;101576.22;;;6.43;78.91
66681;BME280;53575;51.366;12.350;2023-05-03T06:05:10;101579.06;;;6.51;78.65
66681;BME280;53575;51.366;12.350;2023-05-03T06:07:36;101579.50;;;6.65;77.56
66681;BME280;53575;51.366;12.350;2023-05-03T06:10:02;101582.59;;;6.53;76.61
66681;BME280;53575;51.366;12.350;2023-05-03T06:12:28;101576.66;;;6.57;76.90
66681;BME280;53575;51.366;12.350;2023-05-03T06:14:54;101585.84;;;6.46;77.29
66681;BME280;53575;51.366;12.350;2023-05-03T06:17:19;101585.34;;;6.57;76.40
66681;BME280;53575;51.366;12.350;2023-05-03T06:19:47;101587.34;;;6.68;76.31
66681;BME280;53575;51.366;12.350;2023-05-03T06:22:16;101599.03;;;6.82;75.77
66681;BME280;53575;51.366;12.350;2023-05-03T06:24:41;101595.34;;;6.74;76.28
66681;BME280;53575;51.366;12.350;2023-05-03T06:27:06;101587.84;;;6.83;76.49
66681;BME280;53575;51.366;12.350;2023-05-03T06:29:32;101591.69;;;6.97;74.58
66681;BME280;53575;51.366;12.350;2023-05-03T06:31:57;101594.94;;;6.90;74.92
66681;BME280;53575;51.366;12.350;2023-05-03T06:34:24;101593.16;;;6.88;75.05
66681;BME280;53575;51.366;12.350;2023-05-03T06:36:50;101595.00;;;6.92;75.44
66681;BME280;53575;51.366;12.350;2023-05-03T06:39:15;101591.00;;;7.03;76.05
66681;BME280;53575;51.366;12.350;2023-05-03T06:41:41;101594.44;;;7.02;76.15
66681;BME280;53575;51.366;12.350;2023-05-03T06:44:07;101597.88;;;7.01;76.26
66681;BME280;53575;51.366;12.350;2023-05-03T06:46:32;101589.31;;;7.05;75.93
66681;BME280;53575;51.366;12.350;2023-05-03T06:48:58;101596.88;;;7.27;75.20
66681;BME280;53575;51.366;12.350;2023-05-03T06:51:25;101599.59;;;7.30;75.01
66681;BME280;53575;51.366;12.350;2023-05-03T06:53:56;101596.31;;;7.38;73.82
66681;BME280;53575;51.366;12.350;2023-05-03T06:56:22;101588.06;;;7.52;74.11
66681;BME280;53575;51.366;12.350;2023-05-03T06:58:47;101590.69;;;7.54;74.27
66681;BME280;53575;51.366;12.350;2023-05-03T07:01:13;101587.53;;;7.66;73.42
66681;BME280;53575;51.366;12.350;2023-05-03T07:03:38;101584.50;;;7.49;74.18
66681;BME280;53575;51.366;12.350;2023-05-03T07:06:04;101587.41;;;7.61;73.64
66681;BME280;53575;51.366;12.350;2023-05-03T07:08:30;101577.16;;;7.67;72.38
66681;BME280;53575;51.366;12.350;2023-05-03T07:10:56;101584.44;;;7.47;71.99
66681;BME280;53575;51.366;12.350;2023-05-03T07:13:21;101580.94;;;7.47;71.47
66681;BME280;53575;51.366;12.350;2023-05-03T07:15:47;101581.34;;;7.62;71.23
66681;BME280;53575;51.366;12.350;2023-05-03T07:18:12;101579.97;;;7.75;70.14
66681;BME280;53575;51.366;12.350;2023-05-03T07:20:37;101580.97;;;7.80;69.68
66681;BME280;53575;51.366;12.350;2023-05-03T07:23:03;101583.75;;;7.88;68.91
66681;BME280;53575;51.366;12.350;2023-05-03T07:25:31;101583.75;;;7.88;69.30
66681;BME280;53575;51.366;12.350;2023-05-03T07:27:56;101585.81;;;8.01;69.43
66681;BME280;53575;51.366;12.350;2023-05-03T07:30:21;101579.59;;;7.94;68.42
66681;BME280;53575;51.366;12.350;2023-05-03T07:32:47;101576.94;;;7.93;68.35
66681;BME280;53575;51.366;12.350;2023-05-03T07:35:13;101583.94;;;7.95;67.23
66681;BME280;53575;51.366;12.350;2023-05-03T07:37:39;101589.59;;;8.14;64.13
66681;BME280;53575;51.366;12.350;2023-05-03T07:40:05;101582.09;;;8.26;62.34
66681;BME280;53575;51.366;12.350;2023-05-03T07:42:31;101580.66;;;8.39;62.95
66681;BME280;53575;51.366;12.350;2023-05-03T07:44:58;101579.38;;;8.58;63.35
66681;BME280;53575;51.366;12.350;2023-05-03T07:47:25;101581.69;;;8.44;64.05
66681;BME280;53575;51.366;12.350;2023-05-03T07:49:52;101578.00;;;8.36;64.08
66681;BME280;53575;51.366;12.350;2023-05-03T07:52:17;101577.41;;;8.47;64.75
66681;BME280;53575;51.366;12.350;2023-05-03T07:54:43;101569.09;;;8.65;64.56
66681;BME280;53575;51.366;12.350;2023-05-03T07:57:13;101570.31;;;8.81;64.23
66681;BME280;53575;51.366;12.350;2023-05-03T07:59:39;101557.50;;;8.90;63.17
66681;BME280;53575;51.366;12.350;2023-05-03T08:02:05;101564.44;;;8.91;62.87
66681;BME280;53575;51.366;12.350;2023-05-03T08:04:30;101568.94;;;8.58;63.45
66681;BME280;53575;51.366;12.350;2023-05-03T08:06:59;101565.88;;;8.75;62.65
66681;BME280;53575;51.366;12.350;2023-05-03T08:09:25;101571.94;;;8.74;62.33
66681;BME280;53575;51.366;12.350;2023-05-03T08:11:51;101569.75;;;8.96;61.99
66681;BME280;53575;51.366;12.350;2023-05-03T08:14:16;101567.03;;;8.90;61.96
66681;BME280;53575;51.366;12.350;2023-05-03T08:16:41;101567.34;;;9.05;61.09
66681;BME280;53575;51.366;12.350;2023-05-03T08:19:07;101556.72;;;8.96;61.37
66681;BME280;53575;51.366;12.350;2023-05-03T08:21:32;101560.34;;;9.04;61.45
66681;BME280;53575;51.366;12.350;2023-05-03T08:23:59;101565.06;;;9.22;60.68
66681;BME280;53575;51.366;12.350;2023-05-03T08:26:25;101565.56;;;9.48;59.26
66681;BME280;53575;51.366;12.350;2023-05-03T08:28:52;101559.63;;;9.57;59.16
66681;BME280;53575;51.366;12.350;2023-05-03T08:31:18;101564.97;;;9.64;58.00
66681;BME280;53575;51.366;12.350;2023-05-03T08:33:44;101560.41;;;9.51;58.18
66681;BME280;53575;51.366;12.350;2023-05-03T08:36:09;101557.09;;;9.61;58.62
66681;BME280;53575;51.366;12.350;2023-05-03T08:38:35;101563.44;;;9.75;59.11
66681;BME280;53575;51.366;12.350;2023-05-03T08:41:25;101564.44;;;9.82;57.92
66681;BME280;53575;51.366;12.350;2023-05-03T08:43:53;101564.44;;;9.84;58.60
66681;BME280;53575;51.366;12.350;2023-05-03T08:46:19;101563.06;;;10.06;57.38
66681;BME280;53575;51.366;12.350;2023-05-03T08:48:48;101568.34;;;10.09;55.39
66681;BME280;53575;51.366;12.350;2023-05-03T08:51:16;101564.94;;;10.14;57.80
66681;BME280;53575;51.366;12.350;2023-05-03T08:53:42;101563.69;;;9.91;57.70
66681;BME280;53575;51.366;12.350;2023-05-03T08:56:09;101567.97;;;9.87;58.19
66681;BME280;53575;51.366;12.350;2023-05-03T08:58:35;101561.97;;;9.91;57.81
66681;BME280;53575;51.366;12.350;2023-05-03T09:01:05;101563.44;;;9.74;58.24
66681;BME280;53575;51.366;12.350;2023-05-03T09:03:32;101560.22;;;9.90;59.02
66681;BME280;53575;51.366;12.350;2023-05-03T09:05:58;101568.53;;;10.19;57.05
66681;BME280;53575;51.366;12.350;2023-05-03T09:08:30;101562.81;;;10.45;56.90
66681;BME280;53575;51.366;12.350;2023-05-03T09:10:56;101560.56;;;10.71;56.49
66681;BME280;53575;51.366;12.350;2023-05-03T09:13:31;101564.34;;;10.94;55.47
66681;BME280;53575;51.366;12.350;2023-05-03T09:15:57;101564.41;;;10.96;54.58
66681;BME280;53575;51.366;12.350;2023-05-03T09:18:23;101571.28;;;10.89;54.02
66681;BME280;53575;51.366;12.350;2023-05-03T09:20:49;101565.84;;;10.72;53.82
66681;BME280;53575;51.366;12.350;2023-05-03T09:25:50;101561.13;;;10.45;55.51
66681;BME280;53575;51.366;12.350;2023-05-03T09:28:16;101566.41;;;10.52;54.32
66681;BME280;53575;51.366;12.350;2023-05-03T09:30:43;101566.91;;;10.88;53.66
66681;BME280;53575;51.366;12.350;2023-05-03T09:33:09;101562.69;;;11.03;54.56
66681;BME280;53575;51.366;12.350;2023-05-03T09:35:36;101552.16;;;10.95;54.35
66681;BME280;53575;51.366;12.350;2023-05-03T09:38:02;101557.47;;;11.01;55.23
66681;BME280;53575;51.366;12.350;2023-05-03T09:40:27;101546.56;;;11.40;53.21
66681;BME280;53575;51.366;12.350;2023-05-03T09:43:10;101552.53;;;11.26;52.63
66681;BME280;53575;51.366;12.350;2023-05-03T09:45:36;101541.94;;;11.15;52.29
66681;BME280;53575;51.366;12.350;2023-05-03T09:48:03;101548.78;;;11.05;53.02
66681;BME280;53575;51.366;12.350;2023-05-03T09:50:34;101552.19;;;10.96;53.46
66681;BME280;53575;51.366;12.350;2023-05-03T09:53:02;101538.53;;;11.22;52.94
66681;BME280;53575;51.366;12.350;2023-05-03T09:55:36;101538.84;;;11.54;51.93
66681;BME280;53575;51.366;12.350;2023-05-03T09:58:03;101537.34;;;11.79;52.79
66681;BME280;53575;51.366;12.350;2023-05-03T10:00:34;101540.91;;;11.86;52.73
66681;BME280;53575;51.366;12.350;2023-05-03T10:03:00;101535.59;;;11.83;51.79
66681;BME280;53575;51.366;12.350;2023-05-03T10:05:29;101535.47;;;11.67;52.19
66681;BME280;53575;51.366;12.350;2023-05-03T10:07:59;101543.13;;;11.46;53.38
66681;BME280;53575;51.366;12.350;2023-05-03T10:10:27;101535.00;;;11.21;53.42
66681;BME280;53575;51.366;12.350;2023-05-03T10:12:54;101533.31;;;11.23;53.54
66681;BME280;53575;51.366;12.350;2023-05-03T10:15:21;101529.00;;;11.27;53.15
66681;BME280;53575;51.366;12.350;2023-05-03T10:17:50;101526.38;;;11.27;52.93
66681;BME280;53575;51.366;12.350;2023-05-03T10:25:29;101526.53;;;11.41;52.37
66681;BME280;53575;51.366;12.350;2023-05-03T10:28:03;101534.00;;;11.07;54.14
66681;BME280;53575;51.366;12.350;2023-05-03T10:30:29;101520.44;;;11.45;52.96
66681;BME280;53575;51.366;12.350;2023-05-03T10:32:57;101529.25;;;11.53;52.58
66681;BME280;53575;51.366;12.350;2023-05-03T10:35:27;101515.28;;;11.53;52.44
66681;BME280;53575;51.366;12.350;2023-05-03T10:37:53;101531.81;;;11.47;52.80
66681;BME280;53575;51.366;12.350;2023-05-03T10:40:21;101521.38;;;11.50;52.02
66681;BME280;53575;51.366;12.350;2023-05-03T10:42:55;101520.53;;;11.56;51.99
66681;BME280;53575;51.366;12.350;2023-05-03T10:45:24;101522.44;;;11.74;51.76
66681;BME280;53575;51.366;12.350;2023-05-03T10:50:34;101526.44;;;12.41;49.44
66681;BME280;53575;51.366;12.350;2023-05-03T10:53:00;101515.22;;;12.65;49.35
66681;BME280;53575;51.366;12.350;2023-05-03T10:55:26;101526.63;;;12.81;49.92
66681;BME280;53575;51.366;12.350;2023-05-03T10:57:54;101525.56;;;12.42;49.93
66681;BME280;53575;51.366;12.350;2023-05-03T11:00:28;101521.97;;;12.22;49.73
66681;BME280;53575;51.366;12.350;2023-05-03T11:05:29;101518.34;;;12.05;50.75
66681;BME280;53575;51.366;12.350;2023-05-03T11:08:10;101511.66;;;12.54;50.66
66681;BME280;53575;51.366;12.350;2023-05-03T11:10:36;101517.09;;;12.94;50.03
66681;BME280;53575;51.366;12.350;2023-05-03T11:13:02;101528.41;;;12.82;48.82
66681;BME280;53575;51.366;12.350;2023-05-03T11:15:27;101532.75;;;12.76;48.23
66681;BME280;53575;51.366;12.350;2023-05-03T11:17:53;101524.78;;;12.59;48.26
66681;BME280;53575;51.366;12.350;2023-05-03T11:20:18;101522.91;;;12.33;49.68
66681;BME280;53575;51.366;12.350;2023-05-03T11:22:44;101524.72;;;12.45;48.03
66681;BME280;53575;51.366;12.350;2023-05-03T11:25:11;101513.44;;;12.60;47.80
66681;BME280;53575;51.366;12.350;2023-05-03T11:27:40;101509.16;;;12.85;47.68
66681;BME280;53575;51.366;12.350;2023-05-03T11:30:07;101504.88;;;13.11;47.64
66681;BME280;53575;51.366;12.350;2023-05-03T11:32:33;101498.81;;;13.29;47.48
66681;BME280;53575;51.366;12.350;2023-05-03T11:35:00;101508.25;;;12.77;48.67
66681;BME280;53575;51.366;12.350;2023-05-03T11:37:27;101506.47;;;12.66;47.71
66681;BME280;53575;51.366;12.350;2023-05-03T11:39:53;101504.81;;;12.96;48.30
66681;BME280;53575;51.366;12.350;2023-05-03T11:42:18;101498.75;;;13.14;48.39
66681;BME280;53575;51.366;12.350;2023-05-03T11:44:44;101493.56;;;13.28;48.67
66681;BME280;53575;51.366;12.350;2023-05-03T11:47:10;101499.66;;;13.22;47.88
66681;BME280;53575;51.366;12.350;2023-05-03T11:49:35;101493.59;;;13.29;48.38
66681;BME280;53575;51.366;12.350;2023-05-03T11:52:01;101499.75;;;13.89;46.31
66681;BME280;53575;51.366;12.350;2023-05-03T11:54:26;101506.75;;;13.74;46.63
66681;BME280;53575;51.366;12.350;2023-05-03T11:56:57;101504.97;;;13.88;46.36
66681;BME280;53575;51.366;12.350;2023-05-03T11:59:38;101506.75;;;13.86;45.52
66681;BME280;53575;51.366;12.350;2023-05-03T12:02:06;101494.44;;;13.34;47.04
66681;BME280;53575;51.366;12.350;2023-05-03T12:04:31;101488.25;;;13.06;46.68
66681;BME280;53575;51.366;12.350;2023-05-03T12:06:57;101501.47;;;13.46;46.52
66681;BME280;53575;51.366;12.350;2023-05-03T12:09:24;101497.97;;;13.44;46.35
66681;BME280;53575;51.366;12.350;2023-05-03T12:11:50;101500.63;;;13.75;44.38
66681;BME280;53575;51.366;12.350;2023-05-03T12:14:15;101506.72;;;14.06;44.44
66681;BME280;53575;51.366;12.350;2023-05-03T12:16:46;101497.13;;;13.74;45.41
66681;BME280;53575;51.366;12.350;2023-05-03T12:19:22;101496.22;;;13.52;46.58
66681;BME280;53575;51.366;12.350;2023-05-03T12:21:48;101498.84;;;13.75;46.33
66681;BME280;53575;51.366;12.350;2023-05-03T12:24:13;101497.97;;;13.98;44.73
66681;BME280;53575;51.366;12.350;2023-05-03T12:26:46;101496.16;;;14.29;44.58
66681;BME280;53575;51.366;12.350;2023-05-03T12:29:12;101491.72;;;14.45;43.79
66681;BME280;53575;51.366;12.350;2023-05-03T12:31:39;101490.00;;;14.39;43.15
66681;BME280;53575;51.366;12.350;2023-05-03T12:34:04;101482.97;;;14.39;43.13
66681;BME280;53575;51.366;12.350;2023-05-03T12:36:30;101481.19;;;14.60;42.84
66681;BME280;53575;51.366;12.350;2023-05-03T12:38:57;101475.72;;;15.01;41.14
66681;BME280;53575;51.366;12.350;2023-05-03T12:41:22;101474.03;;;14.86;40.15
66681;BME280;53575;51.366;12.350;2023-05-03T12:43:52;101472.28;;;14.84;38.66
66681;BME280;53575;51.366;12.350;2023-05-03T12:46:17;101476.69;;;14.85;38.89
66681;BME280;53575;51.366;12.350;2023-05-03T12:48:43;101479.13;;;15.14;38.46
66681;BME280;53575;51.366;12.350;2023-05-03T12:51:08;101473.91;;;15.11;38.92
66681;BME280;53575;51.366;12.350;2023-05-03T12:53:33;101464.88;;;15.44;38.52
66681;BME280;53575;51.366;12.350;2023-05-03T12:55:59;101472.72;;;15.53;39.07
66681;BME280;53575;51.366;12.350;2023-05-03T12:58:25;101463.75;;;15.77;38.12
66681;BME280;53575;51.366;12.350;2023-05-03T13:00:51;101458.38;;;15.90;37.30
66681;BME280;53575;51.366;12.350;2023-05-03T13:03:16;101456.81;;;16.50;36.00
66681;BME280;53575;51.366;12.350;2023-05-03T13:05:42;101459.59;;;16.40;36.32
66681;BME280;53575;51.366;12.350;2023-05-03T13:08:08;101449.19;;;16.97;36.22
66681;BME280;53575;51.366;12.350;2023-05-03T13:10:35;101439.34;;;17.08;36.42